Time;durP1;ratioP1;P1;durP2;ratioP2;P2;SDS_P1;SDS_P2;PMS_P1;PMS_P2;Temp;Humidity;BMP_temperature;BMP_pressure;BME280_temperature;BME280_humidity;BME280_pressure;Samples;Min_cycle;Max_cycle;Signal;HPM_P1;HPM_P2
2021/09/22 00:00:57;;;;;;;15.40;8.82;;;;;;;11.96;100.00;103006.47;4966013;28;20089;-56
2021/09/22 00:03:24;;;;;;;14.30;7.90;;;;;;;11.90;100.00;102999.00;4975141;28;20540;-59
2021/09/22 00:05:51;;;;;;;14.68;9.30;;;;;;;11.86;100.00;103000.13;4972577;28;20046;-60
2021/09/22 00:08:17;;;;;;;16.52;9.38;;;;;;;11.83;100.00;103003.78;4977939;28;20082;-59
2021/09/22 00:10:45;;;;;;;13.63;9.57;;;;;;;11.83;100.00;102997.69;4976732;28;20050;-60
2021/09/22 00:13:11;;;;;;;19.10;9.38;;;;;;;11.81;100.00;103002.19;4973972;28;20057;-60
2021/09/22 00:15:38;;;;;;;14.55;8.88;;;;;;;11.81;100.00;102995.13;4973140;28;20141;-59
2021/09/22 00:18:04;;;;;;;13.70;9.05;;;;;;;11.87;100.00;102996.53;4972475;28;20084;-60
2021/09/22 00:20:32;;;;;;;14.48;9.27;;;;;;;11.85;100.00;102993.16;4975771;28;20121;-57
2021/09/22 00:23:02;;;;;;;13.40;8.68;;;;;;;11.84;100.00;102994.13;4974999;28;20114;-59
2021/09/22 00:25:33;;;;;;;14.85;9.05;;;;;;;11.82;100.00;102993.38;4978386;28;20567;-57
2021/09/22 00:28:00;;;;;;;12.00;9.07;;;;;;;11.80;100.00;102989.97;4974264;28;20562;-59
2021/09/22 00:30:27;;;;;;;14.32;9.23;;;;;;;11.74;100.00;102985.13;4968578;28;20141;-59
2021/09/22 00:32:53;;;;;;;11.73;8.63;;;;;;;11.66;100.00;102989.13;4978744;28;20085;-58
2021/09/22 00:35:20;;;;;;;15.35;9.38;;;;;;;11.60;100.00;102986.91;4973594;28;20058;-60
2021/09/22 00:37:47;;;;;;;15.27;9.70;;;;;;;11.57;100.00;102989.72;4980604;28;20137;-60
2021/09/22 00:40:14;;;;;;;15.77;9.20;;;;;;;11.55;100.00;102981.09;4970905;28;20141;-59
2021/09/22 00:42:41;;;;;;;13.52;9.18;;;;;;;11.58;100.00;102985.28;4975036;28;20092;-59
2021/09/22 00:45:12;;;;;;;19.98;10.70;;;;;;;11.63;100.00;102988.47;4972501;28;20483;-58
2021/09/22 00:47:40;;;;;;;16.83;10.68;;;;;;;11.65;100.00;102991.84;4980437;28;20053;-60
2021/09/22 00:50:07;;;;;;;13.52;9.25;;;;;;;11.66;100.00;102993.50;4978417;28;20148;-60
2021/09/22 00:52:34;;;;;;;16.08;10.45;;;;;;;11.59;100.00;102987.81;4971320;28;20137;-58
2021/09/22 00:55:01;;;;;;;16.48;10.27;;;;;;;11.57;100.00;102983.63;4975386;28;20137;-59
2021/09/22 00:57:28;;;;;;;14.30;9.77;;;;;;;11.60;100.00;102991.28;4965762;28;20058;-60
2021/09/22 00:59:54;;;;;;;16.20;10.02;;;;;;;11.58;100.00;102986.13;4975658;28;20487;-60
2021/09/22 01:02:21;;;;;;;17.20;10.50;;;;;;;11.58;100.00;102986.13;4976991;28;20054;-60
2021/09/22 01:04:48;;;;;;;20.33;10.32;;;;;;;11.52;100.00;102978.66;4974185;28;20064;-60
2021/09/22 01:07:15;;;;;;;16.60;10.48;;;;;;;11.49;100.00;102984.13;4977961;28;20082;-60
2021/09/22 01:09:42;;;;;;;14.80;9.93;;;;;;;11.46;100.00;102985.13;4972980;28;20855;-58
2021/09/22 01:12:09;;;;;;;14.98;9.65;;;;;;;11.47;100.00;102978.97;4972356;28;20082;-60
2021/09/22 01:14:35;;;;;;;15.68;10.07;;;;;;;11.49;100.00;102968.34;4972838;28;20086;-58
2021/09/22 01:17:02;;;;;;;15.18;9.45;;;;;;;11.49;100.00;102968.34;4979663;28;20054;-58
2021/09/22 01:19:29;;;;;;;16.23;10.20;;;;;;;11.49;100.00;102965.72;4977035;28;20081;-60
2021/09/22 01:21:56;;;;;;;15.55;9.45;;;;;;;11.47;100.00;102963.19;4973794;28;20050;-59
2021/09/22 01:24:23;;;;;;;13.40;9.43;;;;;;;11.45;99.36;102966.88;4972828;28;20582;-58
2021/09/22 01:26:51;;;;;;;16.73;10.93;;;;;;;11.43;100.00;102963.50;4962445;28;20141;-60
2021/09/22 01:29:18;;;;;;;16.13;10.60;;;;;;;11.37;100.00;102967.34;4977020;28;20046;-59
2021/09/22 01:31:44;;;;;;;14.63;9.90;;;;;;;11.33;100.00;102960.63;4966840;28;20082;-58
2021/09/22 01:34:13;;;;;;;21.45;10.32;;;;;;;11.28;100.00;102965.31;4978178;28;20105;-59
2021/09/22 01:36:39;;;;;;;18.08;10.93;;;;;;;11.25;100.00;102955.00;4974908;28;20049;-58
2021/09/22 01:39:06;;;;;;;18.17;10.82;;;;;;;11.23;100.00;102957.75;4975188;28;20435;-56
2021/09/22 01:41:33;;;;;;;19.50;9.98;;;;;;;11.24;100.00;102961.19;4971260;28;20564;-57
2021/09/22 01:43:59;;;;;;;18.55;9.90;;;;;;;11.20;100.00;102955.31;4973841;28;20505;-59
2021/09/22 01:46:26;;;;;;;15.57;10.02;;;;;;;11.17;100.00;102955.50;4981641;28;20101;-60
2021/09/22 01:48:53;;;;;;;16.75;10.35;;;;;;;11.18;100.00;102957.19;4976604;28;20132;-61
2021/09/22 01:51:19;;;;;;;14.23;9.90;;;;;;;11.18;100.00;102951.09;4979120;28;20153;-61
2021/09/22 01:53:46;;;;;;;14.30;9.45;;;;;;;11.19;100.00;102948.38;4975790;28;20051;-61
2021/09/22 01:56:12;;;;;;;17.52;10.75;;;;;;;11.19;100.00;102955.38;4976291;28;20093;-61
2021/09/22 01:58:39;;;;;;;17.30;11.25;;;;;;;11.13;100.00;102956.63;4985284;28;20475;-60
2021/09/22 02:01:08;;;;;;;17.30;11.30;;;;;;;11.13;100.00;102955.78;4972166;28;20173;-60
2021/09/22 02:03:37;;;;;;;15.10;10.50;;;;;;;11.12;100.00;102954.94;4981447;28;20049;-58
2021/09/22 02:06:04;;;;;;;16.83;10.57;;;;;;;11.11;100.00;102950.63;4970662;28;20050;-61
2021/09/22 02:08:31;;;;;;;19.70;11.45;;;;;;;11.15;100.00;102960.00;4980499;28;20142;-61
2021/09/22 02:10:58;;;;;;;17.88;11.60;;;;;;;11.15;100.00;102956.53;4977572;28;20062;-60
2021/09/22 02:13:24;;;;;;;15.13;10.32;;;;;;;11.15;100.00;102959.16;4977984;28;20145;-61
2021/09/22 02:15:51;;;;;;;16.13;11.20;;;;;;;11.15;100.00;102951.28;4978918;28;20145;-61
2021/09/22 02:18:18;;;;;;;18.08;12.13;;;;;;;11.15;100.00;102960.00;4978497;28;20054;-61
2021/09/22 02:20:44;;;;;;;18.83;12.27;;;;;;;11.14;100.00;102949.59;4975297;28;20082;-61
2021/09/22 02:23:10;;;;;;;19.00;12.07;;;;;;;11.16;100.00;102951.19;4976335;28;20524;-61
2021/09/22 02:25:37;;;;;;;20.02;11.88;;;;;;;11.13;100.00;102943.50;4977542;28;20469;-56
2021/09/22 02:28:04;;;;;;;21.38;13.85;;;;;;;11.17;100.00;102946.75;4983288;28;20129;-57
2021/09/22 02:30:30;;;;;;;19.85;12.43;;;;;;;11.18;100.00;102933.53;4971299;28;20054;-59
2021/09/22 02:32:57;;;;;;;22.25;14.15;;;;;;;11.19;100.00;102937.00;4981953;28;20068;-61
2021/09/22 02:35:23;;;;;;;21.02;12.88;;;;;;;11.17;100.00;102939.75;4970969;28;20126;-61
2021/09/22 02:37:50;;;;;;;20.60;13.27;;;;;;;11.16;100.00;102937.22;4983888;28;20113;-61
2021/09/22 02:40:17;;;;;;;24.13;14.68;;;;;;;11.22;100.00;102937.66;4972922;28;20141;-61
2021/09/22 02:42:46;;;;;;;23.25;13.10;;;;;;;11.20;100.00;102936.91;4983360;28;20059;-58
2021/09/22 02:45:13;;;;;;;23.20;14.45;;;;;;;11.20;100.00;102936.06;4978483;28;20539;-59
2021/09/22 02:47:41;;;;;;;22.73;13.95;;;;;;;11.17;100.00;102934.50;4969428;28;20145;-59
2021/09/22 02:50:08;;;;;;;26.08;15.63;;;;;;;11.19;100.00;102929.13;4972426;28;20098;-60
2021/09/22 02:52:34;;;;;;;23.02;13.98;;;;;;;11.17;100.00;102926.63;4975687;28;20134;-61
2021/09/22 02:55:01;;;;;;;26.17;15.93;;;;;;;11.18;100.00;102932.72;4977949;28;20086;-60
2021/09/22 02:57:27;;;;;;;24.55;15.20;;;;;;;11.18;100.00;102935.34;4976592;28;20154;-61
2021/09/22 02:59:54;;;;;;;25.73;16.70;;;;;;;11.16;100.00;102926.72;4974479;28;20054;-61
2021/09/22 03:02:21;;;;;;;24.77;15.10;;;;;;;11.18;100.00;102928.28;4976143;28;20844;-58
2021/09/22 03:04:48;;;;;;;21.48;14.65;;;;;;;11.15;100.00;102914.50;4974475;28;20056;-59
2021/09/22 03:07:15;;;;;;;23.27;14.68;;;;;;;11.11;100.00;102913.84;4982826;28;20093;-60
2021/09/22 03:09:42;;;;;;;23.55;15.02;;;;;;;11.13;100.00;102911.13;4973895;28;20093;-59
2021/09/22 03:12:08;;;;;;;23.83;15.07;;;;;;;11.13;100.00;102911.13;4982547;28;20088;-61
2021/09/22 03:14:35;;;;;;;27.65;14.32;;;;;;;11.10;100.00;102914.81;4969755;28;20085;-60
2021/09/22 03:17:01;;;;;;;24.58;14.88;;;;;;;11.06;100.00;102913.31;4978786;28;20144;-61
2021/09/22 03:19:28;;;;;;;26.67;15.15;;;;;;;11.04;100.00;102908.16;4980923;28;20145;-60
2021/09/22 03:21:55;;;;;;;24.08;13.88;;;;;;;11.03;100.00;102908.25;4974673;28;20046;-57
2021/09/22 03:24:21;;;;;;;25.48;14.43;;;;;;;11.02;100.00;102906.59;4976797;28;20163;-60
2021/09/22 03:26:49;;;;;;;23.77;15.32;;;;;;;11.03;100.00;102911.72;4975335;28;20159;-61
2021/09/22 03:29:16;;;;;;;23.45;15.23;;;;;;;11.04;100.00;102915.22;4976491;28;20060;-59
2021/09/22 03:31:44;;;;;;;24.95;14.32;;;;;;;10.99;100.00;102915.47;4970752;28;20261;-61
2021/09/22 03:34:10;;;;;;;25.55;15.68;;;;;;;10.98;100.00;102916.44;4979575;28;20090;-60
2021/09/22 03:36:37;;;;;;;25.75;15.55;;;;;;;10.95;100.00;102910.53;4978889;28;20062;-60
2021/09/22 03:39:04;;;;;;;27.30;15.20;;;;;;;10.95;100.00;102915.78;4972268;28;20137;-61
2021/09/22 03:41:31;;;;;;;23.13;15.13;;;;;;;10.90;100.00;102916.09;4981666;28;20412;-61
2021/09/22 03:43:57;;;;;;;24.95;15.48;;;;;;;10.85;100.00;102916.34;4966923;28;21879;-60
2021/09/22 03:46:24;;;;;;;25.27;15.98;;;;;;;10.84;100.00;102925.19;4977524;28;20154;-58
2021/09/22 03:48:50;;;;;;;25.73;15.43;;;;;;;10.80;100.00;102921.06;4974506;28;20050;-60
2021/09/22 03:51:17;;;;;;;28.88;17.05;;;;;;;10.76;100.00;102927.47;4979170;28;20051;-57
2021/09/22 03:53:43;;;;;;;27.60;16.15;;;;;;;10.76;100.00;102929.22;4979219;28;20122;-60
2021/09/22 03:56:09;;;;;;;26.88;15.68;;;;;;;10.76;100.00;102922.22;4972083;28;20154;-60
2021/09/22 03:58:36;;;;;;;24.38;15.38;;;;;;;10.74;100.00;102923.22;4977030;28;20468;-61
2021/09/22 04:01:03;;;;;;;23.77;14.98;;;;;;;10.73;100.00;102919.75;4971616;28;20082;-60
2021/09/22 04:03:30;;;;;;;27.88;15.95;;;;;;;10.72;100.00;102918.06;4979500;28;20515;-61
2021/09/22 04:05:57;;;;;;;23.38;15.18;;;;;;;10.69;100.00;102916.47;4975350;28;20153;-60
2021/09/22 04:08:23;;;;;;;24.75;16.05;;;;;;;10.69;100.00;102928.78;4979403;28;20085;-58
2021/09/22 04:10:49;;;;;;;24.23;15.55;;;;;;;10.71;100.00;102916.41;4975579;28;20666;-60
2021/09/22 04:13:16;;;;;;;27.40;16.73;;;;;;;10.65;100.00;102903.66;4968932;28;20150;-59
2021/09/22 04:15:42;;;;;;;30.40;17.38;;;;;;;10.69;100.00;102910.41;4979520;28;20606;-58
2021/09/22 04:18:09;;;;;;;25.95;15.82;;;;;;;10.66;100.00;102907.94;4975648;28;20086;-61
2021/09/22 04:20:35;;;;;;;27.05;16.63;;;;;;;10.67;100.00;102907.88;4978266;28;20539;-61
2021/09/22 04:23:02;;;;;;;25.27;16.02;;;;;;;10.69;100.00;102908.59;4973555;28;20535;-60
2021/09/22 04:25:28;;;;;;;28.35;16.10;;;;;;;10.69;100.00;102897.28;4973944;28;20615;-59
2021/09/22 04:27:55;;;;;;;27.30;17.15;;;;;;;10.67;100.00;102901.78;4982339;28;20137;-60
2021/09/22 04:30:21;;;;;;;25.73;16.20;;;;;;;10.67;100.00;102905.25;4969114;28;20130;-59
2021/09/22 04:32:48;;;;;;;28.52;15.82;;;;;;;10.69;100.00;102892.84;4981897;28;20054;-60
2021/09/22 04:35:15;;;;;;;25.80;16.33;;;;;;;10.63;100.00;102900.28;4974316;28;20534;-61
2021/09/22 04:37:41;;;;;;;27.17;15.82;;;;;;;10.63;100.00;102909.00;4979215;28;20137;-60
2021/09/22 04:40:11;;;;;;;26.75;16.40;;;;;;;10.63;100.00;102916.03;4970308;28;20115;-59
2021/09/22 04:42:38;;;;;;;31.25;16.70;;;;;;;10.62;100.00;102916.97;4981093;28;20638;-60
2021/09/22 04:45:06;;;;;;;27.60;15.82;;;;;;;10.61;100.00;102916.13;4976416;28;20831;-61
2021/09/22 04:47:35;;;;;;;27.33;16.88;;;;;;;10.58;100.00;102923.34;4971276;28;20145;-60
2021/09/22 04:50:03;;;;;;;28.42;16.85;;;;;;;10.52;100.00;102921.94;4970970;28;20188;-61
2021/09/22 04:52:30;;;;;;;;;;;;;;;10.53;100.00;102935.91;4974985;28;20054;-61
2021/09/22 04:54:56;;;;;;;25.80;15.23;;;;;;;10.54;100.00;102938.41;4976153;28;20024;-60
2021/09/22 04:57:23;;;;;;;28.77;17.48;;;;;;;10.52;100.00;102935.06;4971966;28;20056;-60
2021/09/22 04:59:50;;;;;;;25.45;15.27;;;;;;;10.51;100.00;102937.78;4977419;28;20471;-60
2021/09/22 05:02:16;;;;;;;25.92;16.70;;;;;;;10.49;100.00;102938.72;4976155;28;20093;-60
2021/09/22 05:04:43;;;;;;;30.52;17.05;;;;;;;10.47;100.00;102947.63;4967163;28;20058;-61
2021/09/22 05:07:10;;;;;;;26.45;16.55;;;;;;;10.46;100.00;102954.63;4977087;28;20144;-60
2021/09/22 05:09:36;;;;;;;30.75;17.40;;;;;;;10.44;100.00;102948.63;4972102;28;20045;-61
2021/09/22 05:12:03;;;;;;;35.72;21.75;;;;;;;10.39;100.00;102952.47;4979437;28;20046;-61
2021/09/22 05:14:30;;;;;;;32.00;19.67;;;;;;;10.39;100.00;102955.97;4971882;28;20162;-60
2021/09/22 05:16:56;;;;;;;33.22;18.95;;;;;;;10.37;100.00;102959.59;4976115;28;20549;-60
2021/09/22 05:19:23;;;;;;;28.90;18.13;;;;;;;10.36;100.00;102960.53;4975201;28;20081;-60
2021/09/22 05:21:49;;;;;;;31.92;18.40;;;;;;;10.37;100.00;102965.72;4972614;28;20730;-60
2021/09/22 05:24:16;;;;;;;28.85;16.90;;;;;;;10.38;100.00;102969.16;4977129;28;20153;-59
2021/09/22 05:26:42;;;;;;;29.08;18.38;;;;;;;10.38;100.00;102972.63;4972638;28;20054;-59
2021/09/22 05:29:08;;;;;;;29.77;18.48;;;;;;;10.34;100.00;102962.41;4971872;28;20132;-60
2021/09/22 05:31:35;;;;;;;28.10;17.45;;;;;;;10.31;100.00;102963.47;4968492;28;20227;-59
2021/09/22 05:34:02;;;;;;;27.65;16.27;;;;;;;10.32;100.00;102966.91;4975127;28;20456;-60
2021/09/22 05:36:28;;;;;;;28.75;16.83;;;;;;;10.31;100.00;102963.47;4980638;28;20136;-60
2021/09/22 05:38:55;;;;;;;26.33;16.92;;;;;;;10.32;100.00;102959.03;4968140;28;20141;-60
2021/09/22 05:41:21;;;;;;;26.33;17.13;;;;;;;10.33;100.00;102965.97;4978947;28;20088;-60
2021/09/22 05:43:48;;;;;;;29.75;17.25;;;;;;;10.32;100.00;102964.28;4967618;28;20065;-60
2021/09/22 05:46:14;;;;;;;29.33;18.55;;;;;;;10.32;100.00;102964.28;4973189;28;20154;-59
2021/09/22 05:48:41;;;;;;;30.92;18.52;;;;;;;10.31;100.00;102962.59;4969387;28;20054;-60
2021/09/22 05:51:07;;;;;;;33.80;21.83;;;;;;;10.34;100.00;102963.25;4977631;28;20176;-60
2021/09/22 05:53:34;;;;;;;54.03;31.45;;;;;;;10.37;100.00;102959.59;4978069;28;20499;-60
2021/09/22 05:56:00;;;;;;;37.75;22.23;;;;;;;10.37;100.00;102956.97;4974745;28;20141;-60
2021/09/22 05:58:30;;;;;;;33.70;19.77;;;;;;;10.38;100.00;102956.06;4971576;28;20055;-60
2021/09/22 06:00:58;;;;;;;36.03;20.92;;;;;;;10.42;100.00;102965.41;4968565;28;20074;-60
2021/09/22 06:03:25;;;;;;;30.15;18.92;;;;;;;10.47;100.00;102960.75;4975323;28;20554;-60
2021/09/22 06:05:52;;;;;;;36.33;20.73;;;;;;;10.47;100.00;102964.22;4972908;28;20054;-60
2021/09/22 06:08:20;;;;;;;35.97;21.50;;;;;;;10.48;100.00;102962.41;4975520;28;20137;-60
2021/09/22 06:10:46;;;;;;;33.83;20.70;;;;;;;10.53;100.00;102956.91;4974496;28;20085;-58
2021/09/22 06:13:13;;;;;;;38.60;22.52;;;;;;;10.54;100.00;102962.03;4963358;28;20137;-59
2021/09/22 06:15:40;;;;;;;34.40;20.67;;;;;;;10.56;100.00;102959.34;4978106;28;20160;-60
2021/09/22 06:18:07;;;;;;;31.52;20.23;;;;;;;10.58;100.00;102958.28;4970172;28;20057;-58
2021/09/22 06:20:34;;;;;;;36.67;21.52;;;;;;;10.63;100.00;102963.28;4978788;28;20047;-60
2021/09/22 06:23:01;;;;;;;35.20;21.85;;;;;;;10.66;100.00;102969.19;4971105;28;20058;-60
2021/09/22 06:25:27;;;;;;;34.22;19.75;;;;;;;10.70;100.00;102972.44;4973073;28;20133;-60
2021/09/22 06:27:54;;;;;;;36.95;20.38;;;;;;;10.77;100.00;102975.56;4972025;28;20054;-60
2021/09/22 06:30:20;;;;;;;33.30;19.75;;;;;;;10.81;100.00;102971.78;4973882;28;20472;-60
2021/09/22 06:32:47;;;;;;;34.67;20.15;;;;;;;10.86;100.00;102975.81;4979558;28;20149;-59
2021/09/22 06:35:13;;;;;;;32.55;19.65;;;;;;;10.93;100.00;102972.81;4974159;28;20137;-59
2021/09/22 06:37:40;;;;;;;37.65;20.63;;;;;;;10.95;100.00;102970.94;4981242;28;20082;-59
2021/09/22 06:40:07;;;;;;;34.10;20.17;;;;;;;11.00;100.00;102974.13;4972418;28;20126;-60
2021/09/22 06:42:33;;;;;;;36.38;20.77;;;;;;;11.05;100.00;102977.28;4973509;28;20090;-60
2021/09/22 06:45:00;;;;;;;38.60;21.35;;;;;;;11.08;100.00;102979.72;4982251;28;20085;-59
2021/09/22 06:47:26;;;;;;;47.55;24.65;;;;;;;11.11;100.00;102984.78;4974830;28;20074;-60
2021/09/22 06:49:53;;;;;;;40.03;23.55;;;;;;;11.18;100.00;102982.63;4982733;28;20046;-60
2021/09/22 06:52:20;;;;;;;36.60;22.67;;;;;;;11.21;100.00;102993.78;4972293;28;20077;-59
2021/09/22 06:54:47;;;;;;;38.72;22.90;;;;;;;11.27;100.00;102987.25;4975093;28;20054;-59
2021/09/22 06:57:14;;;;;;;34.28;21.13;;;;;;;11.35;100.00;102981.50;4972708;28;20208;-60
2021/09/22 06:59:40;;;;;;;36.63;23.25;;;;;;;11.40;100.00;102982.91;4981643;28;20089;-61
2021/09/22 07:02:07;;;;;;;39.28;23.55;;;;;;;11.48;100.00;102987.69;4979790;28;20047;-61
2021/09/22 07:04:34;;;;;;;32.42;21.05;;;;;;;11.55;100.00;102983.72;4974855;28;20165;-61
2021/09/22 07:07:00;;;;;;;39.47;23.45;;;;;;;11.64;100.00;102987.50;4974521;28;20073;-60
2021/09/22 07:09:27;;;;;;;36.67;23.08;;;;;;;11.68;100.00;102992.50;4971172;28;20085;-61
2021/09/22 07:11:53;;;;;;;43.92;25.80;;;;;;;11.76;100.00;102985.88;4976563;28;20555;-60
2021/09/22 07:14:19;;;;;;;45.13;27.63;;;;;;;11.82;100.00;102991.59;4976550;28;20137;-61
2021/09/22 07:16:46;;;;;;;40.60;25.38;;;;;;;11.88;100.00;102987.72;4981569;28;20138;-61
2021/09/22 07:19:12;;;;;;;39.78;24.15;;;;;;;12.00;100.00;102988.72;4980828;28;20149;-61
2021/09/22 07:21:39;;;;;;;37.38;24.48;;;;;;;12.17;100.00;102996.31;4970126;28;20602;-61
2021/09/22 07:24:05;;;;;;;45.08;26.30;;;;;;;12.32;100.00;102997.03;4975836;28;20154;-61
2021/09/22 07:26:32;;;;;;;45.10;27.75;;;;;;;12.40;100.00;102996.50;4976526;28;20132;-61
2021/09/22 07:28:59;;;;;;;43.85;26.27;;;;;;;12.47;100.00;102989.91;4981652;28;20059;-61
2021/09/22 07:31:26;;;;;;;41.40;26.85;;;;;;;12.55;100.00;102999.91;4977064;28;20133;-60
2021/09/22 07:33:52;;;;;;;38.47;26.73;;;;;;;12.60;100.00;103003.03;4976926;28;20113;-61
2021/09/22 07:36:19;;;;;;;43.63;28.55;;;;;;;12.64;100.00;103001.88;4975660;28;20141;-58
2021/09/22 07:38:46;;;;;;;44.20;24.88;;;;;;;12.68;100.00;102995.44;4968664;28;20137;-61
2021/09/22 07:41:12;;;;;;;48.70;29.55;;;;;;;12.72;100.00;103001.34;4979609;28;20058;-60
2021/09/22 07:43:39;;;;;;;38.97;26.85;;;;;;;12.80;100.00;102999.00;4973788;28;20145;-61
2021/09/22 07:46:06;;;;;;;45.03;28.42;;;;;;;12.89;100.00;102995.72;4980074;28;20121;-61
2021/09/22 07:48:34;;;;;;;51.22;28.73;;;;;;;12.97;100.00;102998.66;4974736;28;20050;-61
2021/09/22 07:51:00;;;;;;;38.65;24.00;;;;;;;13.05;100.00;102995.47;4966336;28;20571;-61
2021/09/22 07:53:27;;;;;;;49.85;29.73;;;;;;;13.11;100.00;102997.66;4979571;28;20098;-61
2021/09/22 07:55:53;;;;;;;47.72;28.90;;;;;;;13.14;100.00;102991.38;4975382;28;20118;-61
2021/09/22 07:58:21;;;;;;;45.17;29.00;;;;;;;13.25;100.00;102992.28;4979034;28;20145;-61
2021/09/22 08:00:48;;;;;;;49.85;29.33;;;;;;;13.28;100.00;102990.38;4972961;28;20527;-61
2021/09/22 08:03:15;;;;;;;44.42;29.05;;;;;;;13.35;100.00;102981.94;4974017;28;20061;-61
2021/09/22 08:05:42;;;;;;;47.05;29.10;;;;;;;13.43;100.00;102979.56;4973965;28;20056;-61
2021/09/22 08:08:09;;;;;;;46.28;29.35;;;;;;;13.51;100.00;102980.81;4977424;28;20116;-61
2021/09/22 08:10:37;;;;;;;41.60;25.75;;;;;;;13.62;100.00;102986.13;4981525;28;20142;-62
2021/09/22 08:13:05;;;;;;;39.40;26.58;;;;;;;13.75;100.00;102972.88;4972002;28;20507;-61
2021/09/22 08:15:31;;;;;;;42.13;25.63;;;;;;;13.77;100.00;102969.16;4981527;28;20058;-61
2021/09/22 08:17:58;;;;;;;42.15;26.58;;;;;;;13.77;100.00;102968.31;4966329;28;20162;-61
2021/09/22 08:20:24;;;;;;;41.65;27.10;;;;;;;13.92;100.00;102963.69;4977209;28;20105;-61
2021/09/22 08:22:51;;;;;;;44.05;28.23;;;;;;;13.97;100.00;102975.56;4973744;28;20078;-61
2021/09/22 08:25:19;;;;;;;41.00;27.33;;;;;;;14.01;100.00;102977.03;4979235;28;20508;-60
2021/09/22 08:27:46;;;;;;;43.42;26.45;;;;;;;14.06;100.00;102974.03;4977114;28;20058;-61
2021/09/22 08:30:13;;;;;;;41.03;26.30;;;;;;;14.22;100.00;102969.25;4972057;28;20085;-61
2021/09/22 08:32:40;;;;;;;46.47;28.23;;;;;;;14.37;100.00;102967.25;4971577;28;20054;-60
2021/09/22 08:35:08;;;;;;;40.80;26.20;;;;;;;14.41;100.00;102981.88;4963173;28;20089;-61
2021/09/22 08:37:34;;;;;;;42.93;25.40;;;;;;;14.53;100.00;102977.44;4978509;28;20054;-61
2021/09/22 08:40:01;;;;;;;40.90;24.85;;;;;;;14.60;100.00;102972.56;4978288;28;20082;-61
2021/09/22 08:42:27;;;;;;;39.00;24.15;;;;;;;14.75;100.00;102976.63;4969466;28;20169;-61
2021/09/22 08:44:54;;;;;;;32.28;21.73;;;;;;;14.87;98.10;102966.88;4974158;28;20050;-61
2021/09/22 08:47:21;;;;;;;29.75;20.48;;;;;;;14.97;94.54;102967.00;4965879;28;20732;-61
2021/09/22 08:49:51;;;;;;;31.77;20.42;;;;;;;15.06;91.99;102962.78;4979828;28;20526;-58
2021/09/22 08:52:18;;;;;;;41.13;21.70;;;;;;;15.12;91.32;102957.84;4969958;28;20158;-61
2021/09/22 08:54:45;;;;;;;32.28;19.17;;;;;;;15.18;90.09;102961.78;4977970;28;20080;-61
2021/09/22 08:57:12;;;;;;;29.85;18.48;;;;;;;15.23;90.92;102954.34;4974798;28;20062;-60
2021/09/22 08:59:38;;;;;;;32.10;21.00;;;;;;;15.27;90.49;102953.13;4966187;28;20149;-62
2021/09/22 09:02:14;;;;;;;33.70;19.20;;;;;;;15.33;90.10;102949.13;4972356;28;20074;-61
2021/09/22 09:04:43;;;;;;;26.25;17.23;;;;;;;15.48;89.68;102955.78;4972996;28;20146;-61
2021/09/22 09:07:11;;;;;;;29.58;18.70;;;;;;;15.59;90.05;102952.25;4978047;28;20140;-62
2021/09/22 09:09:40;;;;;;;27.23;18.83;;;;;;;15.71;89.34;102956.53;4973646;28;20161;-61
2021/09/22 09:12:28;;;;;;;31.38;19.27;;;;;;;15.81;89.33;102951.34;4973552;28;20443;-60
2021/09/22 09:14:56;;;;;;;;;;;;;;;15.89;85.80;102942.75;4968466;28;20046;-62
2021/09/22 09:17:42;;;;;;;24.02;16.52;;;;;;;16.05;85.68;102944.94;4976537;28;20358;-61
2021/09/22 09:20:24;;;;;;;25.38;16.85;;;;;;;16.08;82.02;102942.88;4976263;28;20093;-61
2021/09/22 09:23:06;;;;;;;25.40;17.48;;;;;;;16.28;81.76;102950.91;4977993;28;20046;-61
2021/09/22 09:25:40;;;;;;;24.30;16.27;;;;;;;16.36;80.27;102943.13;4975101;28;20054;-61
2021/09/22 09:28:28;;;;;;;27.33;17.33;;;;;;;16.42;77.95;102939.94;4969259;28;20153;-61
2021/09/22 09:30:57;;;;;;;26.10;16.70;;;;;;;16.49;78.95;102938.47;4975491;28;20144;-61
2021/09/22 09:34:03;;;;;;;30.20;15.60;;;;;;;16.62;77.58;102938.19;4971932;28;20050;-61
2021/09/22 09:36:35;;;;;;;23.63;15.48;;;;;;;16.70;75.91;102943.69;4937687;28;20078;-62
2021/09/22 09:39:25;;;;;;;22.05;15.35;;;;;;;16.83;74.72;102946.09;4971761;28;20209;-61
2021/09/22 09:41:57;;;;;;;22.08;15.23;;;;;;;16.97;74.39;102942.22;4974786;28;20582;-61
2021/09/22 09:44:29;;;;;;;24.13;14.77;;;;;;;17.12;72.37;102937.38;4971898;28;20062;-61
2021/09/22 09:47:06;;;;;;;24.38;14.43;;;;;;;17.35;72.28;102936.13;4976875;28;20125;-62
2021/09/22 09:49:35;;;;;;;23.60;14.93;;;;;;;17.52;71.35;102933.75;4968866;28;20089;-62
2021/09/22 09:52:03;;;;;;;22.80;14.27;;;;;;;17.79;70.92;102927.69;4979464;28;20459;-65
2021/09/22 09:54:36;;;;;;;22.02;15.30;;;;;;;18.11;72.17;102918.56;4971096;28;20086;-62
2021/09/22 09:57:15;;;;;;;24.77;14.95;;;;;;;18.43;70.65;102922.66;4971336;28;20522;-62
2021/09/22 09:59:47;;;;;;;21.02;14.07;;;;;;;18.54;68.04;102919.78;4977295;28;20108;-61
2021/09/22 10:02:28;;;;;;;22.25;14.68;;;;;;;18.63;67.48;102923.38;4972940;28;20137;-62
2021/09/22 10:04:56;;;;;;;26.17;14.93;;;;;;;18.59;65.03;102912.19;4975910;28;20758;-62
2021/09/22 10:07:23;;;;;;;21.42;13.57;;;;;;;18.74;65.91;102912.53;4972444;28;20090;-62
2021/09/22 10:09:51;;;;;;;22.80;14.18;;;;;;;18.75;65.80;102912.38;4973830;28;20460;-62
2021/09/22 10:12:19;;;;;;;21.95;13.65;;;;;;;18.82;65.98;102910.00;4979537;28;20509;-61
2021/09/22 10:14:47;;;;;;;22.73;13.35;;;;;;;19.05;66.40;102912.19;4978507;28;20767;-61
2021/09/22 10:17:17;;;;;;;21.70;13.05;;;;;;;18.98;65.09;102905.84;4983367;28;20136;-62
2021/09/22 10:19:46;;;;;;;20.55;13.02;;;;;;;19.13;65.58;102899.84;4973192;28;20094;-62
2021/09/22 10:22:13;;;;;;;22.52;13.23;;;;;;;19.42;64.86;102898.72;4981736;28;20100;-62
2021/09/22 10:24:43;;;;;;;18.90;13.32;;;;;;;19.55;64.06;102903.66;4967740;28;20050;-62
2021/09/22 10:27:14;;;;;;;22.10;14.48;;;;;;;19.38;62.73;102900.03;4982938;28;20047;-62
2021/09/22 10:30:02;;;;;;;21.30;14.05;;;;;;;19.66;63.07;102903.41;4973949;28;20089;-60
2021/09/22 10:32:41;;;;;;;24.33;14.10;;;;;;;19.90;64.27;102899.25;4981204;28;20117;-62
2021/09/22 10:35:26;;;;;;;21.90;13.90;;;;;;;19.92;61.92;102897.28;4970277;28;20146;-62
2021/09/22 10:37:58;;;;;;;24.05;14.95;;;;;;;20.15;63.80;102894.91;4975842;28;20054;-62
2021/09/22 10:40:52;;;;;;;23.15;13.90;;;;;;;20.30;62.25;102889.78;4978330;28;20054;-62
2021/09/22 10:43:23;;;;;;;23.02;14.63;;;;;;;20.45;62.65;102885.50;4972013;28;20412;-62
2021/09/22 10:46:11;;;;;;;21.10;14.32;;;;;;;20.61;61.85;102881.25;4982059;28;20157;-62
2021/09/22 10:48:57;;;;;;;21.33;14.23;;;;;;;20.75;62.45;102869.94;4978810;28;20055;-63
2021/09/22 10:51:37;;;;;;;20.92;14.38;;;;;;;20.98;61.21;102880.00;4976561;28;20817;-62
2021/09/22 10:54:12;;;;;;;21.67;14.80;;;;;;;21.09;59.34;102875.16;4974507;28;20217;-62
2021/09/22 10:56:56;;;;;;;20.05;14.48;;;;;;;21.24;60.37;102874.47;4977501;28;20542;-61
2021/09/22 10:59:38;;;;;;;20.35;14.98;;;;;;;21.17;61.39;102878.81;4975746;28;20365;-62
2021/09/22 11:02:07;;;;;;;18.88;14.07;;;;;;;21.28;59.96;102871.28;4978506;28;20101;-62
2021/09/22 11:04:55;;;;;;;22.58;14.85;;;;;;;21.51;59.95;102867.97;4970478;28;20089;-62
2021/09/22 11:07:22;;;;;;;16.40;12.77;;;;;;;21.72;60.29;102862.09;4979782;28;20050;-62
2021/09/22 11:09:50;;;;;;;20.80;14.10;;;;;;;21.69;60.08;102863.25;4974672;28;20498;-62